sensor_id;sensor_type;location;lat;lon;timestamp;temperature;humidity
3308;DHT22;1666;48.898;9.182;2023-03-01T00:00:14;-0.60;1.00
3308;DHT22;1666;48.898;9.182;2023-03-01T00:02:44;-0.60;1.00
3308;DHT22;1666;48.898;9.182;2023-03-01T00:05:14;-0.60;1.00
3308;DHT22;1666;48.898;9.182;2023-03-01T00:07:44;-0.70;1.00
3308;DHT22;1666;48.898;9.182;2023-03-01T00:10:16;-0.80;1.00
3308;DHT22;1666;48.898;9.182;2023-03-01T00:12:46;-0.80;1.00
3308;DHT22;1666;48.898;9.182;2023-03-01T00:15:16;-0.80;1.00
3308;DHT22;1666;48.898;9.182;2023-03-01T00:17:46;-0.80;1.00
3308;DHT22;1666;48.898;9.182;2023-03-01T00:20:16;-0.80;1.00
3308;DHT22;1666;48.898;9.182;2023-03-01T00:22:46;-0.90;1.00
3308;DHT22;1666;48.898;9.182;2023-03-01T00:25:18;-0.80;1.00
3308;DHT22;1666;48.898;9.182;2023-03-01T00:27:48;-0.80;1.00
3308;DHT22;1666;48.898;9.182;2023-03-01T00:30:18;-0.80;1.00
3308;DHT22;1666;48.898;9.182;2023-03-01T00:32:48;-0.80;1.00
3308;DHT22;1666;48.898;9.182;2023-03-01T00:35:18;-0.90;1.00
3308;DHT22;1666;48.898;9.182;2023-03-01T00:37:49;-0.90;1.00
3308;DHT22;1666;48.898;9.182;2023-03-01T00:40:27;-1.00;1.00
3308;DHT22;1666;48.898;9.182;2023-03-01T00:42:58;-1.00;1.00
3308;DHT22;1666;48.898;9.182;2023-03-01T00:45:28;-1.00;1.00
3308;DHT22;1666;48.898;9.182;2023-03-01T00:47:58;-1.00;1.00
3308;DHT22;1666;48.898;9.182;2023-03-01T00:50:28;-1.00;1.00
3308;DHT22;1666;48.898;9.182;2023-03-01T00:52:58;-1.00;1.00
3308;DHT22;1666;48.898;9.182;2023-03-01T00:55:30;-1.00;1.00
3308;DHT22;1666;48.898;9.182;2023-03-01T00:58:00;-1.00;1.00
3308;DHT22;1666;48.898;9.182;2023-03-01T01:00:30;-1.00;1.00
3308;DHT22;1666;48.898;9.182;2023-03-01T01:03:00;-1.00;1.00
3308;DHT22;1666;48.898;9.182;2023-03-01T01:05:30;-0.90;1.00
3308;DHT22;1666;48.898;9.182;2023-03-01T01:08:00;-0.90;1.00
3308;DHT22;1666;48.898;9.182;2023-03-01T01:10:33;-0.90;1.00
3308;DHT22;1666;48.898;9.182;2023-03-01T01:13:03;-0.90;1.00
3308;DHT22;1666;48.898;9.182;2023-03-01T01:15:34;-0.90;1.00
3308;DHT22;1666;48.898;9.182;2023-03-01T01:18:04;-0.90;1.00
3308;DHT22;1666;48.898;9.182;2023-03-01T01:20:35;-0.90;1.00
3308;DHT22;1666;48.898;9.182;2023-03-01T01:23:05;-0.80;1.00
3308;DHT22;1666;48.898;9.182;2023-03-01T01:25:38;-0.90;1.00
3308;DHT22;1666;48.898;9.182;2023-03-01T01:28:08;-1.00;1.00
3308;DHT22;1666;48.898;9.182;2023-03-01T01:30:38;-1.00;1.00
3308;DHT22;1666;48.898;9.182;2023-03-01T01:33:08;-1.00;1.00
3308;DHT22;1666;48.898;9.182;2023-03-01T01:35:37;-1.10;1.00
3308;DHT22;1666;48.898;9.182;2023-03-01T01:38:07;-1.10;1.00
3308;DHT22;1666;48.898;9.182;2023-03-01T01:40:46;-1.20;1.00
3308;DHT22;1666;48.898;9.182;2023-03-01T01:43:22;-1.20;1.00
3308;DHT22;1666;48.898;9.182;2023-03-01T01:45:55;-1.10;1.00
3308;DHT22;1666;48.898;9.182;2023-03-01T01:48:30;-1.10;1.00
3308;DHT22;1666;48.898;9.182;2023-03-01T01:51:10;-1.10;1.00
3308;DHT22;1666;48.898;9.182;2023-03-01T01:53:42;-1.00;1.00
3308;DHT22;1666;48.898;9.182;2023-03-01T01:56:17;-1.00;1.00
3308;DHT22;1666;48.898;9.182;2023-03-01T01:58:48;-1.10;1.00
3308;DHT22;1666;48.898;9.182;2023-03-01T02:01:19;-1.00;1.00
3308;DHT22;1666;48.898;9.182;2023-03-01T02:03:49;-1.00;1.00
3308;DHT22;1666;48.898;9.182;2023-03-01T02:06:23;-1.00;1.00
3308;DHT22;1666;48.898;9.182;2023-03-01T02:08:59;-1.00;1.00
3308;DHT22;1666;48.898;9.182;2023-03-01T02:11:32;-0.90;1.00
3308;DHT22;1666;48.898;9.182;2023-03-01T02:14:05;-1.00;1.00
3308;DHT22;1666;48.898;9.182;2023-03-01T02:16:35;-0.90;1.00
3308;DHT22;1666;48.898;9.182;2023-03-01T02:19:05;-0.90;1.00
3308;DHT22;1666;48.898;9.182;2023-03-01T02:21:42;-0.90;1.00
3308;DHT22;1666;48.898;9.182;2023-03-01T02:24:21;-0.90;1.00
3308;DHT22;1666;48.898;9.182;2023-03-01T02:26:58;-0.80;1.00
3308;DHT22;1666;48.898;9.182;2023-03-01T02:29:30;-0.50;1.00
3308;DHT22;1666;48.898;9.182;2023-03-01T02:32:02;-0.50;1.00
3308;DHT22;1666;48.898;9.182;2023-03-01T02:34:31;-0.50;1.00
3308;DHT22;1666;48.898;9.182;2023-03-01T02:37:04;-0.50;1.00
3308;DHT22;1666;48.898;9.182;2023-03-01T02:39:37;-0.60;1.00
3308;DHT22;1666;48.898;9.182;2023-03-01T02:42:12;-0.50;1.00
3308;DHT22;1666;48.898;9.182;2023-03-01T02:44:45;-0.50;1.00
3308;DHT22;1666;48.898;9.182;2023-03-01T02:47:15;-0.50;1.00
3308;DHT22;1666;48.898;9.182;2023-03-01T02:49:45;-0.40;1.00
3308;DHT22;1666;48.898;9.182;2023-03-01T02:55:09;-0.40;1.00
3308;DHT22;1666;48.898;9.182;2023-03-01T02:57:43;-0.30;1.00
3308;DHT22;1666;48.898;9.182;2023-03-01T03:00:19;-0.20;1.00
3308;DHT22;1666;48.898;9.182;2023-03-01T03:02:51;-0.20;1.00
3308;DHT22;1666;48.898;9.182;2023-03-01T03:05:26;-0.20;1.00
3308;DHT22;1666;48.898;9.182;2023-03-01T03:07:57;-0.20;1.00
3308;DHT22;1666;48.898;9.182;2023-03-01T03:10:29;-0.20;1.00
3308;DHT22;1666;48.898;9.182;2023-03-01T03:13:00;-0.20;1.00
3308;DHT22;1666;48.898;9.182;2023-03-01T03:15:33;-0.20;1.00
3308;DHT22;1666;48.898;9.182;2023-03-01T03:18:09;-0.20;1.00
3308;DHT22;1666;48.898;9.182;2023-03-01T03:20:40;-0.20;1.00
3308;DHT22;1666;48.898;9.182;2023-03-01T03:23:11;-0.20;1.00
3308;DHT22;1666;48.898;9.182;2023-03-01T03:25:41;-0.20;1.00
3308;DHT22;1666;48.898;9.182;2023-03-01T03:28:11;-0.20;1.00
3308;DHT22;1666;48.898;9.182;2023-03-01T03:30:45;-0.20;1.00
3308;DHT22;1666;48.898;9.182;2023-03-01T03:33:16;-0.20;1.00
3308;DHT22;1666;48.898;9.182;2023-03-01T03:35:48;-0.20;1.00
3308;DHT22;1666;48.898;9.182;2023-03-01T03:38:19;-0.20;1.00
3308;DHT22;1666;48.898;9.182;2023-03-01T03:40:51;-0.20;1.00
3308;DHT22;1666;48.898;9.182;2023-03-01T03:43:22;-0.20;1.00
3308;DHT22;1666;48.898;9.182;2023-03-01T03:45:55;-0.20;1.00
3308;DHT22;1666;48.898;9.182;2023-03-01T03:48:27;-0.20;1.00
3308;DHT22;1666;48.898;9.182;2023-03-01T03:50:56;-0.20;1.00
3308;DHT22;1666;48.898;9.182;2023-03-01T03:53:27;-0.20;1.00
3308;DHT22;1666;48.898;9.182;2023-03-01T03:55:58;-0.10;1.00
3308;DHT22;1666;48.898;9.182;2023-03-01T03:58:28;-0.20;1.00
3308;DHT22;1666;48.898;9.182;2023-03-01T04:01:02;-0.10;1.00
3308;DHT22;1666;48.898;9.182;2023-03-01T04:03:32;-0.10;1.00
3308;DHT22;1666;48.898;9.182;2023-03-01T04:06:03;-0.10;1.00
3308;DHT22;1666;48.898;9.182;2023-03-01T04:08:33;-0.10;1.00
3308;DHT22;1666;48.898;9.182;2023-03-01T04:11:04;-0.10;1.00
3308;DHT22;1666;48.898;9.182;2023-03-01T04:13:47;-0.10;1.00
3308;DHT22;1666;48.898;9.182;2023-03-01T04:16:19;-0.10;1.00
3308;DHT22;1666;48.898;9.182;2023-03-01T04:18:49;-0.10;1.00
3308;DHT22;1666;48.898;9.182;2023-03-01T04:21:20;-0.10;1.00
3308;DHT22;1666;48.898;9.182;2023-03-01T04:23:50;-0.10;1.00
3308;DHT22;1666;48.898;9.182;2023-03-01T04:26:20;-0.10;1.00
3308;DHT22;1666;48.898;9.182;2023-03-01T04:28:50;-0.10;1.00
3308;DHT22;1666;48.898;9.182;2023-03-01T04:31:22;0.00;1.00
3308;DHT22;1666;48.898;9.182;2023-03-01T04:33:54;-0.10;1.00
3308;DHT22;1666;48.898;9.182;2023-03-01T04:36:26;-0.10;1.00
3308;DHT22;1666;48.898;9.182;2023-03-01T04:38:57;-0.10;1.00
3308;DHT22;1666;48.898;9.182;2023-03-01T04:41:40;-0.10;1.00
3308;DHT22;1666;48.898;9.182;2023-03-01T04:44:10;0.00;1.00
3308;DHT22;1666;48.898;9.182;2023-03-01T04:46:43;-0.10;1.00
3308;DHT22;1666;48.898;9.182;2023-03-01T04:49:13;-0.10;1.00
3308;DHT22;1666;48.898;9.182;2023-03-01T04:51:42;-0.20;1.00
3308;DHT22;1666;48.898;9.182;2023-03-01T04:54:12;-0.20;1.00
3308;DHT22;1666;48.898;9.182;2023-03-01T04:56:43;-0.20;1.00
3308;DHT22;1666;48.898;9.182;2023-03-01T04:59:12;-0.20;1.00
3308;DHT22;1666;48.898;9.182;2023-03-01T05:01:45;-0.10;1.00
3308;DHT22;1666;48.898;9.182;2023-03-01T05:04:15;-0.20;1.00
3308;DHT22;1666;48.898;9.182;2023-03-01T05:06:45;-0.20;1.00
3308;DHT22;1666;48.898;9.182;2023-03-01T05:09:15;-0.20;1.00
3308;DHT22;1666;48.898;9.182;2023-03-01T05:11:45;-0.20;1.00
3308;DHT22;1666;48.898;9.182;2023-03-01T05:14:14;-0.20;1.00
3308;DHT22;1666;48.898;9.182;2023-03-01T05:16:47;-0.20;1.00
3308;DHT22;1666;48.898;9.182;2023-03-01T05:19:17;-0.20;1.00
3308;DHT22;1666;48.898;9.182;2023-03-01T05:21:49;-0.20;1.00
3308;DHT22;1666;48.898;9.182;2023-03-01T05:24:33;-0.20;1.00
3308;DHT22;1666;48.898;9.182;2023-03-01T05:27:03;-0.30;1.00
3308;DHT22;1666;48.898;9.182;2023-03-01T05:29:33;-0.20;1.00
3308;DHT22;1666;48.898;9.182;2023-03-01T05:32:05;-0.20;1.00
3308;DHT22;1666;48.898;9.182;2023-03-01T05:34:36;-0.30;1.00
3308;DHT22;1666;48.898;9.182;2023-03-01T05:37:06;-0.30;1.00
3308;DHT22;1666;48.898;9.182;2023-03-01T05:39:36;-0.30;1.00
3308;DHT22;1666;48.898;9.182;2023-03-01T05:42:06;-0.50;1.00
3308;DHT22;1666;48.898;9.182;2023-03-01T05:44:37;-0.50;1.00
3308;DHT22;1666;48.898;9.182;2023-03-01T05:47:10;-0.60;1.00
3308;DHT22;1666;48.898;9.182;2023-03-01T05:49:40;-0.70;1.00
3308;DHT22;1666;48.898;9.182;2023-03-01T05:52:09;-0.70;1.00
3308;DHT22;1666;48.898;9.182;2023-03-01T05:54:39;-0.80;1.00
3308;DHT22;1666;48.898;9.182;2023-03-01T05:57:09;-0.80;1.00
3308;DHT22;1666;48.898;9.182;2023-03-01T05:59:39;-0.80;1.00
3308;DHT22;1666;48.898;9.182;2023-03-01T06:02:11;-0.80;1.00
3308;DHT22;1666;48.898;9.182;2023-03-01T06:04:41;-0.90;1.00
3308;DHT22;1666;48.898;9.182;2023-03-01T06:07:11;-0.90;1.00
3308;DHT22;1666;48.898;9.182;2023-03-01T06:09:41;-0.90;1.00
3308;DHT22;1666;48.898;9.182;2023-03-01T06:12:11;-0.90;1.00
3308;DHT22;1666;48.898;9.182;2023-03-01T06:14:40;-0.90;1.00
3308;DHT22;1666;48.898;9.182;2023-03-01T06:17:13;-0.90;1.00
3308;DHT22;1666;48.898;9.182;2023-03-01T06:19:43;-0.90;1.00
3308;DHT22;1666;48.898;9.182;2023-03-01T06:22:13;-0.80;1.00
3308;DHT22;1666;48.898;9.182;2023-03-01T06:24:42;-0.70;1.00
3308;DHT22;1666;48.898;9.182;2023-03-01T06:27:12;-0.80;1.00
3308;DHT22;1666;48.898;9.182;2023-03-01T06:29:42;-0.80;1.00
3308;DHT22;1666;48.898;9.182;2023-03-01T06:32:15;-0.70;1.00
3308;DHT22;1666;48.898;9.182;2023-03-01T06:34:45;-0.80;1.00
3308;DHT22;1666;48.898;9.182;2023-03-01T06:37:15;-0.80;1.00
3308;DHT22;1666;48.898;9.182;2023-03-01T06:39:45;-0.90;1.00
3308;DHT22;1666;48.898;9.182;2023-03-01T06:42:14;-0.90;1.00
3308;DHT22;1666;48.898;9.182;2023-03-01T06:44:44;-0.90;1.00
3308;DHT22;1666;48.898;9.182;2023-03-01T06:47:17;-0.90;1.00
3308;DHT22;1666;48.898;9.182;2023-03-01T06:49:47;-0.90;1.00
3308;DHT22;1666;48.898;9.182;2023-03-01T06:52:17;-0.90;1.00
3308;DHT22;1666;48.898;9.182;2023-03-01T06:54:47;-0.90;1.00
3308;DHT22;1666;48.898;9.182;2023-03-01T06:57:17;-0.80;1.00
3308;DHT22;1666;48.898;9.182;2023-03-01T06:59:46;-0.80;1.00
3308;DHT22;1666;48.898;9.182;2023-03-01T07:02:19;-0.70;1.00
3308;DHT22;1666;48.898;9.182;2023-03-01T07:04:49;-0.60;1.00
3308;DHT22;1666;48.898;9.182;2023-03-01T07:07:19;-0.50;1.00
3308;DHT22;1666;48.898;9.182;2023-03-01T07:09:49;-0.50;1.00
3308;DHT22;1666;48.898;9.182;2023-03-01T07:12:20;-0.40;1.00
3308;DHT22;1666;48.898;9.182;2023-03-01T07:14:51;-0.30;1.00
3308;DHT22;1666;48.898;9.182;2023-03-01T07:17:24;-0.30;1.00
3308;DHT22;1666;48.898;9.182;2023-03-01T07:19:54;-0.20;1.00
3308;DHT22;1666;48.898;9.182;2023-03-01T07:22:23;-0.10;1.00
3308;DHT22;1666;48.898;9.182;2023-03-01T07:24:53;-0.20;1.00
3308;DHT22;1666;48.898;9.182;2023-03-01T07:27:23;-0.10;1.00
3308;DHT22;1666;48.898;9.182;2023-03-01T07:29:53;-0.10;1.00
3308;DHT22;1666;48.898;9.182;2023-03-01T07:32:25;0.00;1.00
3308;DHT22;1666;48.898;9.182;2023-03-01T07:34:55;0.10;1.00
3308;DHT22;1666;48.898;9.182;2023-03-01T07:37:25;0.00;1.00
3308;DHT22;1666;48.898;9.182;2023-03-01T07:39:55;0.10;1.00
3308;DHT22;1666;48.898;9.182;2023-03-01T07:42:25;0.00;1.00
3308;DHT22;1666;48.898;9.182;2023-03-01T07:44:55;0.10;1.00
3308;DHT22;1666;48.898;9.182;2023-03-01T07:47:27;0.10;1.00
3308;DHT22;1666;48.898;9.182;2023-03-01T07:49:57;0.10;1.00
3308;DHT22;1666;48.898;9.182;2023-03-01T07:52:28;0.20;1.00
3308;DHT22;1666;48.898;9.182;2023-03-01T07:54:57;0.10;1.00
3308;DHT22;1666;48.898;9.182;2023-03-01T07:57:27;0.10;1.00
3308;DHT22;1666;48.898;9.182;2023-03-01T07:59:58;0.30;1.00
3308;DHT22;1666;48.898;9.182;2023-03-01T08:02:30;0.20;1.00
3308;DHT22;1666;48.898;9.182;2023-03-01T08:05:00;0.20;1.00
3308;DHT22;1666;48.898;9.182;2023-03-01T08:07:30;0.30;1.00
3308;DHT22;1666;48.898;9.182;2023-03-01T08:10:00;0.30;1.00
3308;DHT22;1666;48.898;9.182;2023-03-01T08:12:30;0.40;1.00
3308;DHT22;1666;48.898;9.182;2023-03-01T08:14:59;0.50;1.00
3308;DHT22;1666;48.898;9.182;2023-03-01T08:17:32;0.60;1.00
3308;DHT22;1666;48.898;9.182;2023-03-01T08:20:02;0.70;1.00
3308;DHT22;1666;48.898;9.182;2023-03-01T08:22:34;0.60;1.00
3308;DHT22;1666;48.898;9.182;2023-03-01T08:25:04;0.70;1.00
3308;DHT22;1666;48.898;9.182;2023-03-01T08:27:34;0.70;1.00
3308;DHT22;1666;48.898;9.182;2023-03-01T08:30:05;0.80;1.00
3308;DHT22;1666;48.898;9.182;2023-03-01T08:32:39;0.80;1.00
3308;DHT22;1666;48.898;9.182;2023-03-01T08:35:09;1.00;1.00
3308;DHT22;1666;48.898;9.182;2023-03-01T08:37:39;1.00;1.00
3308;DHT22;1666;48.898;9.182;2023-03-01T08:40:11;1.00;1.00
3308;DHT22;1666;48.898;9.182;2023-03-01T08:42:41;1.10;1.00
3308;DHT22;1666;48.898;9.182;2023-03-01T08:45:12;1.10;1.00
3308;DHT22;1666;48.898;9.182;2023-03-01T08:47:47;1.20;1.00
3308;DHT22;1666;48.898;9.182;2023-03-01T08:50:17;1.30;1.00
3308;DHT22;1666;48.898;9.182;2023-03-01T08:52:47;1.50;1.00
3308;DHT22;1666;48.898;9.182;2023-03-01T08:55:17;1.70;1.00
3308;DHT22;1666;48.898;9.182;2023-03-01T08:57:47;1.70;1.00
3308;DHT22;1666;48.898;9.182;2023-03-01T09:00:17;1.60;1.00
3308;DHT22;1666;48.898;9.182;2023-03-01T09:02:51;1.60;1.00
3308;DHT22;1666;48.898;9.182;2023-03-01T09:05:21;1.70;1.00
3308;DHT22;1666;48.898;9.182;2023-03-01T09:07:51;2.00;1.00
3308;DHT22;1666;48.898;9.182;2023-03-01T09:10:20;2.10;1.00
3308;DHT22;1666;48.898;9.182;2023-03-01T09:12:51;2.00;1.00
3308;DHT22;1666;48.898;9.182;2023-03-01T09:15:21;2.10;1.00
3308;DHT22;1666;48.898;9.182;2023-03-01T09:17:53;2.00;1.00
3308;DHT22;1666;48.898;9.182;2023-03-01T09:20:23;2.20;1.00
3308;DHT22;1666;48.898;9.182;2023-03-01T09:22:53;2.00;1.00
3308;DHT22;1666;48.898;9.182;2023-03-01T09:25:22;2.00;1.00
3308;DHT22;1666;48.898;9.182;2023-03-01T09:27:53;2.00;1.00
3308;DHT22;1666;48.898;9.182;2023-03-01T09:30:23;2.10;1.00
3308;DHT22;1666;48.898;9.182;2023-03-01T09:32:56;2.20;1.00
3308;DHT22;1666;48.898;9.182;2023-03-01T09:35:26;2.10;1.00
3308;DHT22;1666;48.898;9.182;2023-03-01T09:37:56;2.10;1.00
3308;DHT22;1666;48.898;9.182;2023-03-01T09:40:26;2.30;1.00
3308;DHT22;1666;48.898;9.182;2023-03-01T09:43:05;2.40;1.00
3308;DHT22;1666;48.898;9.182;2023-03-01T09:45:40;2.60;1.00
3308;DHT22;1666;48.898;9.182;2023-03-01T09:48:16;2.60;1.00
3308;DHT22;1666;48.898;9.182;2023-03-01T09:50:49;2.90;1.00
3308;DHT22;1666;48.898;9.182;2023-03-01T09:53:22;2.60;1.00
3308;DHT22;1666;48.898;9.182;2023-03-01T09:55:55;2.70;1.00
3308;DHT22;1666;48.898;9.182;2023-03-01T09:58:37;2.80;1.00
3308;DHT22;1666;48.898;9.182;2023-03-01T10:01:26;2.90;1.00
3308;DHT22;1666;48.898;9.182;2023-03-01T10:04:18;3.30;1.00
3308;DHT22;1666;48.898;9.182;2023-03-01T10:07:02;3.20;1.00
3308;DHT22;1666;48.898;9.182;2023-03-01T10:09:37;3.30;1.00
3308;DHT22;1666;48.898;9.182;2023-03-01T10:12:10;3.60;1.00
3308;DHT22;1666;48.898;9.182;2023-03-01T10:14:48;3.60;1.00
3308;DHT22;1666;48.898;9.182;2023-03-01T10:17:32;3.60;1.00
3308;DHT22;1666;48.898;9.182;2023-03-01T10:20:23;3.60;1.00
3308;DHT22;1666;48.898;9.182;2023-03-01T10:22:53;3.80;1.00
3308;DHT22;1666;48.898;9.182;2023-03-01T10:25:36;3.80;1.00
3308;DHT22;1666;48.898;9.182;2023-03-01T10:28:16;3.70;1.00
3308;DHT22;1666;48.898;9.182;2023-03-01T10:30:46;3.90;1.00
3308;DHT22;1666;48.898;9.182;2023-03-01T10:33:21;4.10;1.00
3308;DHT22;1666;48.898;9.182;2023-03-01T10:35:54;4.10;1.00
3308;DHT22;1666;48.898;9.182;2023-03-01T10:38:24;4.10;1.00
3308;DHT22;1666;48.898;9.182;2023-03-01T10:40:58;4.00;1.00
3308;DHT22;1666;48.898;9.182;2023-03-01T10:43:40;4.20;1.00
3308;DHT22;1666;48.898;9.182;2023-03-01T10:46:23;4.10;1.00
3308;DHT22;1666;48.898;9.182;2023-03-01T10:49:10;4.20;1.00
3308;DHT22;1666;48.898;9.182;2023-03-01T10:51:45;4.60;1.00
3308;DHT22;1666;48.898;9.182;2023-03-01T10:54:17;4.90;1.00
3308;DHT22;1666;48.898;9.182;2023-03-01T10:56:49;4.80;1.00
3308;DHT22;1666;48.898;9.182;2023-03-01T10:59:26;4.70;1.00
3308;DHT22;1666;48.898;9.182;2023-03-01T11:02:13;4.70;1.00
3308;DHT22;1666;48.898;9.182;2023-03-01T11:04:59;4.80;1.00
3308;DHT22;1666;48.898;9.182;2023-03-01T11:07:47;5.00;1.00
3308;DHT22;1666;48.898;9.182;2023-03-01T11:10:21;5.20;1.00
3308;DHT22;1666;48.898;9.182;2023-03-01T11:12:52;5.10;1.00
3308;DHT22;1666;48.898;9.182;2023-03-01T11:15:25;4.90;1.00
3308;DHT22;1666;48.898;9.182;2023-03-01T11:17:56;4.90;1.00
3308;DHT22;1666;48.898;9.182;2023-03-01T11:20:40;4.90;1.00
3308;DHT22;1666;48.898;9.182;2023-03-01T11:23:14;5.20;1.00
3308;DHT22;1666;48.898;9.182;2023-03-01T11:25:49;5.30;1.00
3308;DHT22;1666;48.898;9.182;2023-03-01T11:28:21;5.30;1.00
3308;DHT22;1666;48.898;9.182;2023-03-01T11:30:55;5.30;1.00
3308;DHT22;1666;48.898;9.182;2023-03-01T11:33:42;5.40;1.00
3308;DHT22;1666;48.898;9.182;2023-03-01T11:36:24;5.50;1.00
3308;DHT22;1666;48.898;9.182;2023-03-01T11:39:02;5.70;1.00
3308;DHT22;1666;48.898;9.182;2023-03-01T11:41:35;5.50;1.00
3308;DHT22;1666;48.898;9.182;2023-03-01T11:44:11;5.60;1.00
3308;DHT22;1666;48.898;9.182;2023-03-01T11:47:10;5.80;1.00
3308;DHT22;1666;48.898;9.182;2023-03-01T11:50:00;5.80;1.00
3308;DHT22;1666;48.898;9.182;2023-03-01T11:52:42;5.80;1.00
3308;DHT22;1666;48.898;9.182;2023-03-01T11:55:29;5.90;1.00
3308;DHT22;1666;48.898;9.182;2023-03-01T11:58:05;6.20;1.00
3308;DHT22;1666;48.898;9.182;2023-03-01T12:03:59;5.90;1.00
3308;DHT22;1666;48.898;9.182;2023-03-01T12:06:41;6.00;1.00
3308;DHT22;1666;48.898;9.182;2023-03-01T12:12:34;6.20;1.00
3308;DHT22;1666;48.898;9.182;2023-03-01T12:21:11;6.30;1.00
3308;DHT22;1666;48.898;9.182;2023-03-01T12:24:10;6.50;1.00
3308;DHT22;1666;48.898;9.182;2023-03-01T12:26:53;6.30;1.00
3308;DHT22;1666;48.898;9.182;2023-03-01T12:29:34;6.50;1.00
3308;DHT22;1666;48.898;9.182;2023-03-01T12:32:18;6.70;1.00
3308;DHT22;1666;48.898;9.182;2023-03-01T12:35:01;6.60;1.00
3308;DHT22;1666;48.898;9.182;2023-03-01T12:37:47;6.70;1.00
3308;DHT22;1666;48.898;9.182;2023-03-01T12:40:33;6.90;1.00
3308;DHT22;1666;48.898;9.182;2023-03-01T12:43:17;6.90;1.00
3308;DHT22;1666;48.898;9.182;2023-03-01T12:46:01;6.90;1.00
3308;DHT22;1666;48.898;9.182;2023-03-01T12:48:42;6.80;1.00
3308;DHT22;1666;48.898;9.182;2023-03-01T12:51:19;6.90;1.00
3308;DHT22;1666;48.898;9.182;2023-03-01T12:53:52;7.00;1.00
3308;DHT22;1666;48.898;9.182;2023-03-01T12:56:25;6.90;1.00
3308;DHT22;1666;48.898;9.182;2023-03-01T12:59:01;6.80;1.00
3308;DHT22;1666;48.898;9.182;2023-03-01T13:01:41;7.10;1.00
3308;DHT22;1666;48.898;9.182;2023-03-01T13:04:23;7.20;1.00
3308;DHT22;1666;48.898;9.182;2023-03-01T13:07:14;7.10;1.00
3308;DHT22;1666;48.898;9.182;2023-03-01T13:09:52;7.10;1.00
3308;DHT22;1666;48.898;9.182;2023-03-01T13:12:52;7.00;1.00
3308;DHT22;1666;48.898;9.182;2023-03-01T13:15:35;7.20;1.00
3308;DHT22;1666;48.898;9.182;2023-03-01T13:18:30;7.10;1.00
3308;DHT22;1666;48.898;9.182;2023-03-01T13:21:02;7.10;1.00
3308;DHT22;1666;48.898;9.182;2023-03-01T13:23:35;7.30;1.00
3308;DHT22;1666;48.898;9.182;2023-03-01T13:26:11;7.40;1.00
3308;DHT22;1666;48.898;9.182;2023-03-01T13:28:48;7.50;1.00
3308;DHT22;1666;48.898;9.182;2023-03-01T13:34:51;7.40;1.00
3308;DHT22;1666;48.898;9.182;2023-03-01T13:37:37;7.30;1.00
3308;DHT22;1666;48.898;9.182;2023-03-01T13:43:29;7.10;1.00
3308;DHT22;1666;48.898;9.182;2023-03-01T13:46:00;7.50;1.00
3308;DHT22;1666;48.898;9.182;2023-03-01T13:48:31;7.50;1.00
3308;DHT22;1666;48.898;9.182;2023-03-01T13:51:07;7.40;1.00
3308;DHT22;1666;48.898;9.182;2023-03-01T13:53:41;7.50;1.00
3308;DHT22;1666;48.898;9.182;2023-03-01T13:56:15;7.40;1.00
3308;DHT22;1666;48.898;9.182;2023-03-01T13:58:51;7.20;1.00
3308;DHT22;1666;48.898;9.182;2023-03-01T14:01:27;7.40;1.00
3308;DHT22;1666;48.898;9.182;2023-03-01T14:03:59;7.40;1.00
3308;DHT22;1666;48.898;9.182;2023-03-01T14:06:33;7.40;1.00
3308;DHT22;1666;48.898;9.182;2023-03-01T14:09:08;7.30;1.00
3308;DHT22;1666;48.898;9.182;2023-03-01T14:12:06;7.30;1.00
3308;DHT22;1666;48.898;9.182;2023-03-01T14:14:51;7.10;1.00
3308;DHT22;1666;48.898;9.182;2023-03-01T14:20:39;7.30;1.00
3308;DHT22;1666;48.898;9.182;2023-03-01T14:23:15;7.10;1.00
3308;DHT22;1666;48.898;9.182;2023-03-01T14:25:48;7.20;1.00
3308;DHT22;1666;48.898;9.182;2023-03-01T14:28:20;7.40;1.00
3308;DHT22;1666;48.898;9.182;2023-03-01T14:30:52;7.40;1.00
3308;DHT22;1666;48.898;9.182;2023-03-01T14:33:24;7.30;1.00
3308;DHT22;1666;48.898;9.182;2023-03-01T14:35:56;7.30;1.00
3308;DHT22;1666;48.898;9.182;2023-03-01T14:38:34;7.40;1.00
3308;DHT22;1666;48.898;9.182;2023-03-01T14:41:07;7.40;1.00
3308;DHT22;1666;48.898;9.182;2023-03-01T14:43:39;7.20;1.00
3308;DHT22;1666;48.898;9.182;2023-03-01T14:46:18;7.20;1.00
3308;DHT22;1666;48.898;9.182;2023-03-01T14:48:50;7.30;1.00
3308;DHT22;1666;48.898;9.182;2023-03-01T14:51:20;7.50;1.00
3308;DHT22;1666;48.898;9.182;2023-03-01T14:53:53;7.50;1.00
3308;DHT22;1666;48.898;9.182;2023-03-01T14:56:23;7.60;1.00
3308;DHT22;1666;48.898;9.182;2023-03-01T14:58:57;7.40;1.00
3308;DHT22;1666;48.898;9.182;2023-03-01T15:01:28;7.40;1.00
3308;DHT22;1666;48.898;9.182;2023-03-01T15:03:58;7.30;1.00
3308;DHT22;1666;48.898;9.182;2023-03-01T15:06:28;7.30;1.00
3308;DHT22;1666;48.898;9.182;2023-03-01T15:09:01;7.40;1.00
3308;DHT22;1666;48.898;9.182;2023-03-01T15:11:32;7.50;1.00
3308;DHT22;1666;48.898;9.182;2023-03-01T15:14:25;7.30;1.00
3308;DHT22;1666;48.898;9.182;2023-03-01T15:16:56;7.40;1.00
3308;DHT22;1666;48.898;9.182;2023-03-01T15:19:27;7.30;1.00
3308;DHT22;1666;48.898;9.182;2023-03-01T15:21:57;7.20;1.00
3308;DHT22;1666;48.898;9.182;2023-03-01T15:24:41;7.20;1.00
3308;DHT22;1666;48.898;9.182;2023-03-01T15:27:17;7.20;1.00
3308;DHT22;1666;48.898;9.182;2023-03-01T15:29:49;7.20;1.00
3308;DHT22;1666;48.898;9.182;2023-03-01T15:32:28;7.20;1.00
3308;DHT22;1666;48.898;9.182;2023-03-01T15:34:58;7.10;1.00
3308;DHT22;1666;48.898;9.182;2023-03-01T15:37:40;7.00;1.00
3308;DHT22;1666;48.898;9.182;2023-03-01T15:40:24;7.00;1.00
3308;DHT22;1666;48.898;9.182;2023-03-01T15:42:58;7.00;1.00
3308;DHT22;1666;48.898;9.182;2023-03-01T15:45:29;7.00;1.00
3308;DHT22;1666;48.898;9.182;2023-03-01T15:48:02;7.00;1.00
3308;DHT22;1666;48.898;9.182;2023-03-01T15:50:34;7.00;1.00
3308;DHT22;1666;48.898;9.182;2023-03-01T15:53:09;7.00;1.00
3308;DHT22;1666;48.898;9.182;2023-03-01T15:55:43;7.00;1.00
3308;DHT22;1666;48.898;9.182;2023-03-01T15:58:19;7.00;1.00
3308;DHT22;1666;48.898;9.182;2023-03-01T16:00:50;6.90;1.00
3308;DHT22;1666;48.898;9.182;2023-03-01T16:03:28;7.00;1.00
3308;DHT22;1666;48.898;9.182;2023-03-01T16:05:58;6.90;1.00
3308;DHT22;1666;48.898;9.182;2023-03-01T16:08:28;6.90;1.00
3308;DHT22;1666;48.898;9.182;2023-03-01T16:11:02;6.80;1.00
3308;DHT22;1666;48.898;9.182;2023-03-01T16:13:32;6.80;1.00
3308;DHT22;1666;48.898;9.182;2023-03-01T16:16:03;6.70;1.00
3308;DHT22;1666;48.898;9.182;2023-03-01T16:18:33;6.60;1.00
3308;DHT22;1666;48.898;9.182;2023-03-01T16:21:03;6.60;1.00
3308;DHT22;1666;48.898;9.182;2023-03-01T16:23:33;6.60;1.00
3308;DHT22;1666;48.898;9.182;2023-03-01T16:26:05;6.50;1.00
3308;DHT22;1666;48.898;9.182;2023-03-01T16:28:35;6.50;1.00
3308;DHT22;1666;48.898;9.182;2023-03-01T16:31:05;6.50;1.00
3308;DHT22;1666;48.898;9.182;2023-03-01T16:33:35;6.40;1.00
3308;DHT22;1666;48.898;9.182;2023-03-01T16:36:07;6.30;1.00
3308;DHT22;1666;48.898;9.182;2023-03-01T16:38:38;6.30;1.00
3308;DHT22;1666;48.898;9.182;2023-03-01T16:41:12;6.20;1.00
3308;DHT22;1666;48.898;9.182;2023-03-01T16:43:42;6.20;1.00
3308;DHT22;1666;48.898;9.182;2023-03-01T16:46:15;6.20;1.00
3308;DHT22;1666;48.898;9.182;2023-03-01T16:48:46;6.10;1.00
3308;DHT22;1666;48.898;9.182;2023-03-01T16:51:16;6.10;1.00
3308;DHT22;1666;48.898;9.182;2023-03-01T16:53:46;6.00;1.00
3308;DHT22;1666;48.898;9.182;2023-03-01T16:56:19;6.00;1.00
3308;DHT22;1666;48.898;9.182;2023-03-01T16:58:49;5.90;1.00
3308;DHT22;1666;48.898;9.182;2023-03-01T17:01:20;5.90;1.00
3308;DHT22;1666;48.898;9.182;2023-03-01T17:03:52;5.80;1.00
3308;DHT22;1666;48.898;9.182;2023-03-01T17:06:21;5.70;1.00
3308;DHT22;1666;48.898;9.182;2023-03-01T17:08:53;5.70;1.00
3308;DHT22;1666;48.898;9.182;2023-03-01T17:11:25;5.60;1.00
3308;DHT22;1666;48.898;9.182;2023-03-01T17:13:56;5.50;1.00
3308;DHT22;1666;48.898;9.182;2023-03-01T17:16:26;5.50;1.00
3308;DHT22;1666;48.898;9.182;2023-03-01T17:18:56;5.40;1.00
3308;DHT22;1666;48.898;9.182;2023-03-01T17:21:26;5.40;1.00
3308;DHT22;1666;48.898;9.182;2023-03-01T17:23:58;5.30;1.00
3308;DHT22;1666;48.898;9.182;2023-03-01T17:26:30;5.30;1.00
3308;DHT22;1666;48.898;9.182;2023-03-01T17:29:00;5.20;1.00
3308;DHT22;1666;48.898;9.182;2023-03-01T17:31:32;5.20;1.00